Quincy Municipal Airport

About
Name: Quincy Municipal Airport
Identifier:  UIN/KUIN
Local Time:  15. Sep 09:08 CDT
Location
Statistics
Flights per Day:
4 flights
Distance: 357km (222mi)
Flights delayed:
65% (1 flights per day delayed)
Delay Average: 5 minutes
Current Weather
 21 C (Humidity: 82%)
  3kt (5km/h / 3mph) from 170°
  Scattered clouds at 11,000 feet (3,352 meter)
  16km (10 mi.)
 Light/Moderate: Rain
 METAR KUIN 151354Z AUTO 17003KT 10SM -RA SCT110 21/18 A3011 RMK AO2 LTG DSNT N SLP191 P0002 T02060183

Current Flights

Arrivals
Number Arrival From Airline
Landed UA5042 20:25  Chicago  United Airlines

Current Delays

Departures
N/A
Arrivals
N/A

Destinations

Top Destinations
Airport Flights
per week
Seats
per week
  Chicago (ORD) 28 1,400 4 200
  Charleston (JZI) 0 - 0 0

Airlines & Planes

Top Airlines
Airline Flights
per Day
Seats
per Day
  SkyWest Airlines 3 193
  Britt Airways 0 6
Gama Aviation 0 -
Top Plane Types
Model Flights Seats
Bombardier CRJ200 3.8/day 191/day 191.66666666666666
Bombardier Challenger 600 0.2/day 8/day 8.333333333333334
Beech B300 Super King Air 350 0.0/day - 0